Latest Weather Observations for Kiama

IDN60801

Issued at 9:35 pm EST Monday 21 April 2014 (issued every 30 minutes, with the page automatically refreshed every 10 minutes)

About weather observations | Map of weather stations | Latest weather observations for NSW | Other Formats
Station Details ID: 068242 Name: KIAMA (BOMBO HEADLAND) Lat: -34.65 Lon: 150.86 Height: 15.5 m
Data from the previous 72 hours. | See also: Recent months at Kiama
Date/Time
EST
Temp
°C
App
Temp
°C
Dew
Point
Rel
Hum
%
Delta-T
°C
Wind Press
QNH
hPa
Press
MSL
hPa
Rain
since 9 am
mm
Dir
 
Spd
km/h
Gust
km/h
Spd
kts
Gust
kts
21/09:30pm 15.6 14.3 12.5 82 1.7 W 11 11 6 6 - - 0.0
21/09:00pm 16.1 15.0 13.0 82 1.7 WNW 11 13 6 7 - - 0.0
21/08:30pm 16.2 15.4 12.9 81 1.8 W 9 11 5 6 - - 0.0
21/08:00pm 16.5 15.7 13.0 80 1.9 W 9 11 5 6 - - 0.0
21/07:30pm 16.4 15.8 12.2 76 2.3 W 7 9 4 5 - - 0.0
21/07:00pm 17.0 16.5 12.5 75 2.5 W 7 9 4 5 - - 0.0
21/06:30pm 17.2 16.7 12.5 74 2.6 W 7 9 4 5 - - 0.0
21/06:00pm 17.7 17.4 12.8 73 2.7 SW 6 6 3 3 - - 0.0
21/05:30pm 19.2 18.8 14.0 72 3.0 SSW 9 13 5 7 - - 0.0
21/05:00pm 20.0 18.9 14.4 70 3.3 S 13 15 7 8 - - 0.0
21/04:30pm 20.5 19.1 14.4 68 3.6 S 15 19 8 10 - - 0.0
21/04:00pm 21.1 19.3 14.5 66 3.9 S 17 22 9 12 - - 0.0
21/03:30pm 21.3 19.2 14.7 66 3.9 S 19 24 10 13 - - 0.0
21/03:00pm 21.5 19.4 14.6 65 4.1 S 19 26 10 14 - - 0.0
21/02:30pm 21.6 19.4 14.5 64 4.2 S 19 24 10 13 - - 0.0
21/02:00pm 21.5 19.2 14.6 65 4.1 S 20 26 11 14 - - 0.0
21/01:30pm 21.5 18.3 14.2 63 4.3 S 24 30 13 16 - - 0.0
21/01:00pm 21.8 19.4 14.4 63 4.3 S 20 28 11 15 - - 0.0
21/12:30pm 22.1 20.0 13.7 59 4.9 S 17 22 9 12 - - 0.0
21/12:00pm 22.5 20.5 13.8 58 5.1 S 17 20 9 11 - - 0.0
21/11:30am 21.7 20.1 13.9 61 4.5 S 15 20 8 11 - - 0.0
21/11:00am 21.7 20.0 13.6 60 4.7 S 15 20 8 11 - - 0.0
21/10:30am 21.3 19.5 13.2 60 4.6 S 15 20 8 11 - - 0.0
21/10:00am 21.7 22.2 13.9 61 4.5 S 4 7 2 4 - - 0.0
21/09:30am 20.8 22.0 13.7 64 4.1 CALM 0 2 0 1 - - 0.0
21/09:00am 19.9 21.1 13.8 68 3.5 CALM 0 0 0 0 - - 0.0
21/08:30am 18.3 19.1 12.5 69 3.2 CALM 0 4 0 2 - - 0.0
21/08:00am 16.6 16.6 11.3 71 2.9 NW 2 4 1 2 - - 0.0
21/07:30am 15.0 13.9 9.8 71 2.7 WNW 6 9 3 5 - - 0.0
21/07:00am 13.5 11.7 8.1 70 2.7 WNW 7 9 4 5 - - 0.0
21/06:30am 12.7 10.6 6.5 66 3.0 WNW 7 11 4 6 - - 0.0
21/06:00am 12.9 10.0 6.3 64 3.1 WNW 11 15 6 8 - - 0.0
21/05:30am 12.7 10.4 5.6 62 3.3 WNW 7 11 4 6 - - 0.0
21/05:00am 13.2 10.2 5.9 61 3.4 WNW 11 17 6 9 - - 0.0
21/04:30am 13.3 10.6 5.5 59 3.7 WNW 9 13 5 7 - - 0.0
21/04:00am 13.5 10.4 5.4 58 3.8 WNW 11 15 6 8 - - 0.0
21/03:30am 13.3 10.9 5.2 58 3.8 WNW 7 11 4 6 - - 0.0
21/03:00am 13.8 10.7 5.4 57 3.9 W 11 17 6 9 - - 0.0
21/02:30am 14.5 11.8 5.8 56 4.1 SSW 9 15 5 8 - - 0.0
21/02:00am 14.6 12.4 6.2 57 4.0 WSW 7 15 4 8 - - 0.0
21/01:30am 14.9 10.3 5.4 53 4.5 W 19 26 10 14 - - 0.0
21/01:00am 14.8 11.4 5.9 55 4.3 WSW 13 22 7 12 - - 0.0
21/12:30am 14.9 12.5 7.2 60 3.8 SW 9 15 5 8 - - 0.0
21/12:00am 14.9 12.8 8.2 64 3.4 SW 9 13 5 7 - - 0.0
 
Date/Time
EST
Temp
°C
App
Temp
°C
Dew
Point
Rel
Hum
%
Delta-T
°C
Wind Press
QNH
hPa
Press
MSL
hPa
Rain
since 9 am
mm
Dir
 
Spd
km/h
Gust
km/h
Spd
kts
Gust
kts
20/11:30pm 15.3 13.3 7.3 59 4.0 SW 7 13 4 7 - - 0.0
20/11:00pm 15.5 11.2 6.8 56 4.3 WSW 19 28 10 15 - - 0.0
20/10:30pm 15.6 11.7 7.1 57 4.2 W 17 24 9 13 - - 0.0
20/10:00pm 16.0 12.2 7.5 57 4.2 W 17 26 9 14 - - 0.0
20/09:30pm 16.1 12.2 8.6 61 3.8 W 19 24 10 13 - - 0.0
20/09:00pm 16.3 14.6 9.7 65 3.4 WSW 9 17 5 9 - - 0.0
20/08:30pm 15.8 14.6 9.7 67 3.2 WSW 6 9 3 5 - - 0.0
20/08:00pm 17.0 14.7 10.6 66 3.4 SW 13 19 7 10 - - 0.0
20/07:30pm 17.7 16.0 12.6 72 2.8 WSW 13 17 7 9 - - 0.0
20/07:00pm 17.3 16.8 12.6 74 2.6 WSW 7 11 4 6 - - 0.0
20/06:30pm 17.7 17.4 12.6 72 2.8 W 6 11 3 6 - - 0.0
20/06:00pm 18.5 18.3 13.1 71 3.0 WNW 6 9 3 5 - - 0.0
20/05:30pm 19.6 18.7 13.8 69 3.3 N 11 17 6 9 - - 0.0
20/05:00pm 20.2 18.8 13.4 65 3.9 NNE 13 19 7 10 - - 0.0
20/04:30pm 21.7 20.5 13.9 61 4.5 NNE 13 19 7 10 - - 0.0
20/04:00pm 22.1 20.5 14.0 60 4.7 NNE 15 22 8 12 - - 0.0
20/03:30pm 22.9 21.0 14.2 58 5.1 NNE 17 22 9 12 - - 0.0
20/03:00pm 22.9 20.6 14.7 60 4.9 NE 20 28 11 15 - - 0.0
20/02:30pm 22.4 20.3 15.3 64 4.2 NNE 20 30 11 16 - - 0.0
20/02:00pm 21.9 19.3 13.8 60 4.7 NNE 20 30 11 16 - - 0.0
20/01:30pm 22.6 20.0 13.9 58 5.1 NE 20 28 11 15 - - 0.0
20/01:00pm 23.0 20.7 14.0 57 5.3 NE 19 24 10 13 - - 0.0
20/12:30pm 22.9 20.7 13.4 55 5.5 NNE 17 24 9 13 - - 0.0
20/12:00pm 22.4 19.8 12.1 52 5.8 NNE 17 22 9 12 - - 0.0
20/11:30am 22.2 19.6 11.9 52 5.8 NNE 17 22 9 12 - - 0.0
20/11:00am 22.0 19.9 11.1 50 6.0 NNE 13 19 7 10 - - 0.0
20/10:30am 21.3 19.3 10.2 49 6.0 N 11 17 6 9 - - 0.0
20/10:00am 20.6 19.2 11.0 54 5.3 NNE 9 13 5 7 - - 0.0
20/09:30am 19.6 18.7 11.4 59 4.5 N 7 9 4 5 - - 0.0
20/09:00am 18.6 18.1 11.9 65 3.7 N 6 9 3 5 - - -
20/08:30am 17.0 15.9 10.6 66 3.4 NW 7 11 4 6 - - -
20/08:00am 15.7 14.8 10.7 72 2.7 NW 6 7 3 4 - - -
20/07:30am 13.5 11.7 9.4 76 2.1 W 9 13 5 7 - - -
20/07:00am 11.8 10.0 8.1 78 1.8 W 7 11 4 6 - - -
20/06:30am 11.2 9.2 7.3 77 1.9 W 7 9 4 5 - - -
20/06:00am 11.4 9.7 7.5 77 1.9 W 6 6 3 3 - - -
20/05:30am 11.7 9.9 8.0 78 1.8 SW 7 7 4 4 - - -
20/05:00am 11.5 9.6 7.4 76 2.0 W 7 9 4 5 - - -
20/04:30am 11.4 9.1 7.3 76 2.0 W 9 11 5 6 - - -
20/04:00am 11.7 10.0 7.4 75 2.1 WSW 6 7 3 4 - - -
20/03:30am 11.7 10.0 7.4 75 2.1 WSW 6 7 3 4 - - -
20/03:00am 12.0 10.3 7.5 74 2.2 WSW 6 7 3 4 - - 0.0
20/02:30am 12.6 10.8 7.9 73 2.3 W 7 7 4 4 - - -
20/02:00am 12.7 10.1 7.8 72 2.4 W 11 13 6 7 - - -
20/01:30am 12.7 10.1 7.6 71 2.5 W 11 13 6 7 - - -
20/01:00am 13.4 10.9 8.0 70 2.7 W 11 15 6 8 - - -
20/12:30am 13.0 10.8 7.7 70 2.6 W 9 13 5 7 - - -
20/12:00am 13.3 11.1 8.0 70 2.6 W 9 13 5 7 - - -
 
Date/Time
EST
Temp
°C
App
Temp
°C
Dew
Point
Rel
Hum
%
Delta-T
°C
Wind Press
QNH
hPa
Press
MSL
hPa
Rain
since 9 am
mm
Dir
 
Spd
km/h
Gust
km/h
Spd
kts
Gust
kts
19/11:30pm 13.3 11.1 8.0 70 2.6 W 9 13 5 7 - - -
19/11:00pm 13.7 11.2 8.1 69 2.8 W 11 15 6 8 - - -
19/10:30pm 13.6 11.4 8.0 69 2.8 W 9 13 5 7 - - -
19/10:00pm 13.8 11.3 8.0 68 2.9 W 11 13 6 7 - - -
19/09:30pm 13.7 11.1 7.9 68 2.9 W 11 15 6 8 - - -
19/09:00pm 13.9 11.4 8.1 68 2.9 W 11 15 6 8 - - -
19/08:30pm 13.8 12.1 8.2 69 2.8 WSW 7 11 4 6 - - -
19/08:00pm 13.9 12.2 8.3 69 2.8 WSW 7 9 4 5 - - 0.0
19/07:30pm 14.2 12.6 8.2 67 3.0 W 6 9 3 5 - - 0.0
19/07:00pm 14.4 12.7 7.7 64 3.3 WSW 6 7 3 4 - - 0.0
19/06:30pm 15.6 13.9 8.4 62 3.6 SW 7 15 4 8 - - 0.0
19/06:00pm 17.0 13.7 9.4 61 4.0 SSW 17 20 9 11 - - 0.0
19/05:30pm 17.3 13.6 9.5 60 4.1 SSW 19 30 10 16 - - 0.0
19/05:00pm 18.4 14.1 9.5 56 4.7 S 22 28 12 15 - - 0.0
19/04:30pm 18.7 14.4 9.5 55 4.9 S 22 33 12 18 - - 0.0
19/04:00pm 18.8 13.2 8.7 52 5.3 S 28 35 15 19 - - 0.0
19/03:30pm 19.0 13.4 8.9 52 5.3 S 28 35 15 19 - - 0.0
19/03:00pm 19.1 13.6 9.3 53 5.2 S 28 39 15 21 - - 0.0
19/02:30pm 19.3 14.0 8.3 49 5.7 S 26 33 14 18 - - 0.0
19/02:00pm 19.3 13.9 8.0 48 5.8 S 26 33 14 18 - - 0.0
19/01:30pm 19.3 14.1 8.9 51 5.4 S 26 35 14 19 - - 0.0
19/01:00pm 19.0 14.1 8.6 51 5.4 S 24 33 13 18 - - 0.0
19/12:30pm 19.0 14.5 8.6 51 5.4 S 22 35 12 19 - - 0.0
19/12:00pm 19.2 15.1 8.5 50 5.6 S 20 30 11 16 - - 0.0
19/11:30am 19.2 15.2 8.2 49 5.7 SSW 19 26 10 14 - - 0.0
19/11:00am 18.9 13.3 8.6 51 5.3 S 28 35 15 19 - - 0.0
19/10:30am 19.1 14.5 8.1 49 5.7 SSW 22 30 12 16 - - 0.0
19/10:00am 18.7 14.7 8.4 51 5.3 SSW 19 26 10 14 - - 0.0
19/09:30am 18.2 13.5 7.9 51 5.3 SSW 22 33 12 18 - - 0.0
19/09:00am 17.9 12.8 7.6 51 5.2 SSW 24 35 13 19 - - 0.0
19/08:30am 17.1 11.6 7.5 53 4.8 SSW 26 33 14 18 - - 0.0
19/08:00am 16.8 11.3 7.4 54 4.7 SSW 26 33 14 18 - - 0.0
19/07:30am 16.5 11.1 8.0 57 4.3 SSW 26 35 14 19 - - 0.0
19/07:00am 16.3 12.4 8.8 61 3.8 SSW 19 28 10 15 - - 0.0
19/06:30am 15.5 13.9 10.1 70 2.8 SW 9 13 5 7 - - 0.0
19/06:00am 15.2 13.9 10.0 71 2.7 WSW 7 11 4 6 - - 0.0
19/05:30am 15.5 13.9 10.1 70 2.8 WSW 9 13 5 7 - - 0.0
19/05:00am 16.5 14.7 10.8 69 3.0 SSW 11 19 6 10 - - 0.0
19/04:30am 17.0 13.9 11.5 70 3.0 SSW 19 24 10 13 - - 0.0
19/04:00am 16.8 14.0 11.3 70 3.0 SSW 17 22 9 12 - - 0.0
19/03:30am 17.2 14.8 11.5 69 3.1 S 15 19 8 10 - - 0.0
19/03:00am 17.5 15.1 11.5 68 3.3 S 15 20 8 11 - - 0.0
19/02:30am 17.9 15.6 11.9 68 3.3 SSW 15 20 8 11 - - 0.0
19/02:00am 18.0 15.0 12.7 71 3.0 SSW 20 32 11 17 - - 0.0
19/01:30am 18.3 15.6 13.4 73 2.8 SSW 20 26 11 14 - - 0.0
19/01:00am 18.8 15.8 13.6 72 3.0 SSW 22 30 12 16 - - 0.0
19/12:30am 18.9 15.5 13.7 72 3.0 SSW 24 33 13 18 - - 0.0
19/12:00am 19.3 15.2 13.9 71 3.1 SSW 28 35 15 19 - - 0.0
 
Date/Time
EST
Temp
°C
App
Temp
°C
Dew
Point
Rel
Hum
%
Delta-T
°C
Wind Press
QNH
hPa
Press
MSL
hPa
Rain
since 9 am
mm
Dir
 
Spd
km/h
Gust
km/h
Spd
kts
Gust
kts
18/11:30pm 19.5 14.7 11.5 60 4.4 SSW 28 33 15 18 - - 0.0
18/11:00pm 19.8 15.7 10.0 53 5.3 WSW 22 35 12 19 - - 0.0
18/10:30pm 19.6 16.0 10.0 54 5.1 WSW 19 33 10 18 - - 0.0
18/10:00pm 19.3 16.6 10.3 56 4.8 SW 15 24 8 13 - - 0.0

Other Formats:

Comma delimited format used in spreadsheet applications
http://www.bom.gov.au/fwo/IDN60801/IDN60801.95749.axf

JavaScript Object Notation format (JSON) in row-major order
http://www.bom.gov.au/fwo/IDN60801/IDN60801.95749.json